Terminal Aerodrome Forecast
Issued by NWS

Home | Current Version | Previous Version | Text Only | Print | Product List | Glossary On
Versions: 1 2 3 4 5 6 7 8 9 10 11 12 13 14 15
730
FTUS44 KLZK 281720
TAFPBF
TAF
KPBF 281720Z 2818/2918 07007KT P6SM SCT040
     FM282000 11009KT P6SM SCT040 SCT250
     FM290200 11008KT P6SM VCSH SCT015 OVC030
      TEMPO 2910/2914 4SM BR OVC015
     FM291400 12009KT P6SM OVC025=

USA.gov is the U.S. government's official web portal to all federal, state and local government web resources and services.